createdAt,value
2017-07-04T00:06:44.000Z,1012.16
2017-07-04T00:16:44.000Z,1012.205
2017-07-04T00:26:44.000Z,1012.129
2017-07-04T00:36:44.000Z,1012.106
2017-07-04T00:46:45.000Z,1012.176
2017-07-04T00:56:44.000Z,1012.134
2017-07-04T01:06:45.000Z,1012.111
2017-07-04T01:16:44.000Z,1012.155
2017-07-04T01:26:44.000Z,1012.09
2017-07-04T01:36:44.000Z,1012.081
2017-07-04T01:46:45.000Z,1012.124
2017-07-04T01:56:44.000Z,1012.143
2017-07-04T02:06:45.000Z,1012.203
2017-07-04T02:16:45.000Z,1012.169
2017-07-04T02:26:45.000Z,1012.065
2017-07-04T02:36:45.000Z,1012.119
2017-07-04T02:46:45.000Z,1012.186
2017-07-04T02:56:45.000Z,1012.251
2017-07-04T03:06:45.000Z,1012.234
2017-07-04T03:16:45.000Z,1012.272
2017-07-04T03:36:45.000Z,1012.401
2017-07-04T03:46:45.000Z,1012.508
2017-07-04T03:56:45.000Z,1012.599
2017-07-04T04:06:45.000Z,1012.676
2017-07-04T04:16:45.000Z,1012.491
2017-07-04T04:26:45.000Z,1012.504
2017-07-04T04:36:45.000Z,1012.75
2017-07-04T04:46:45.000Z,1012.818
2017-07-04T04:56:45.000Z,1012.789
2017-07-04T05:06:45.000Z,1012.855
2017-07-04T05:16:45.000Z,1012.984
2017-07-04T05:26:45.000Z,1012.918
2017-07-04T05:36:45.000Z,1012.809
2017-07-04T05:46:45.000Z,1012.817
2017-07-04T05:56:45.000Z,1012.923
2017-07-04T06:06:45.000Z,1013.05
2017-07-04T06:16:45.000Z,1013.167
2017-07-04T06:26:45.000Z,1013.317
2017-07-04T06:36:45.000Z,1013.359
2017-07-04T06:46:45.000Z,1013.54
2017-07-04T06:56:45.000Z,1013.596
2017-07-04T07:06:45.000Z,1013.6
2017-07-04T07:16:45.000Z,1013.656
2017-07-04T07:26:45.000Z,1013.792
2017-07-04T07:36:45.000Z,1013.859
2017-07-04T07:46:45.000Z,1013.955
2017-07-04T07:56:45.000Z,1013.923
2017-07-04T08:06:45.000Z,1013.825
2017-07-04T08:16:45.000Z,1013.881
2017-07-04T08:26:45.000Z,1013.942
2017-07-04T08:36:46.000Z,1013.982
2017-07-04T08:46:45.000Z,1013.955
2017-07-04T08:56:45.000Z,1013.875
2017-07-04T09:06:46.000Z,1013.832
2017-07-04T09:16:45.000Z,1013.824
2017-07-04T09:26:45.000Z,1013.851
2017-07-04T09:36:45.000Z,1013.876
2017-07-04T09:46:45.000Z,1013.941
2017-07-04T09:56:45.000Z,1013.925
2017-07-04T10:06:45.000Z,1013.918
2017-07-04T10:16:45.000Z,1013.915
2017-07-04T10:36:45.000Z,1013.7
2017-07-04T10:46:46.000Z,1013.663
2017-07-04T10:56:46.000Z,1013.742
2017-07-04T11:06:46.000Z,1013.668
2017-07-04T11:16:46.000Z,1013.658
2017-07-04T11:26:47.000Z,1013.608
2017-07-04T11:36:46.000Z,1013.665
2017-07-04T11:46:46.000Z,1013.59
2017-07-04T11:56:46.000Z,1013.517
2017-07-04T12:06:46.000Z,1013.532
2017-07-04T12:16:46.000Z,1013.491
2017-07-04T12:26:46.000Z,1013.447
2017-07-04T12:36:46.000Z,1013.376
2017-07-04T12:46:46.000Z,1013.372
2017-07-04T12:56:46.000Z,1013.435
2017-07-04T13:06:46.000Z,1013.349
2017-07-04T13:26:46.000Z,1013.189
2017-07-04T13:36:46.000Z,1013.087
2017-07-04T13:46:46.000Z,1013.033
2017-07-04T13:56:46.000Z,1012.974
2017-07-04T14:06:46.000Z,1012.94
2017-07-04T14:26:46.000Z,1012.873
2017-07-04T14:36:46.000Z,1012.89
2017-07-04T14:46:46.000Z,1012.821
2017-07-04T14:56:46.000Z,1012.684
2017-07-04T15:06:46.000Z,1012.685
2017-07-04T15:16:46.000Z,1012.668
2017-07-04T15:26:46.000Z,1012.605
2017-07-04T15:36:46.000Z,1012.532
2017-07-04T15:46:46.000Z,1012.508
2017-07-04T15:56:46.000Z,1012.42
2017-07-04T16:06:46.000Z,1012.27
2017-07-04T16:16:48.000Z,1012.233
2017-07-04T16:26:46.000Z,1012.218
2017-07-04T16:36:46.000Z,1012.173
2017-07-04T16:46:47.000Z,1012.132
2017-07-04T16:56:46.000Z,1012.103
2017-07-04T17:06:46.000Z,1012.062
2017-07-04T17:16:46.000Z,1012.113
2017-07-04T17:26:46.000Z,1012.123
2017-07-04T17:36:46.000Z,1012.088
2017-07-04T17:56:47.000Z,1011.994
2017-07-04T18:06:46.000Z,1011.987
2017-07-04T18:16:46.000Z,1011.981
2017-07-04T18:26:46.000Z,1012.011
2017-07-04T18:36:46.000Z,1012.068
2017-07-04T18:46:46.000Z,1012.066
2017-07-04T18:56:47.000Z,1012.039
2017-07-04T19:06:47.000Z,1012.021
2017-07-04T19:16:47.000Z,1011.982
2017-07-04T19:26:47.000Z,1012.003
2017-07-04T19:36:47.000Z,1012.084
2017-07-04T19:46:47.000Z,1012.264
2017-07-04T20:26:47.000Z,1012.327
2017-07-04T20:46:47.000Z,1012.182
2017-07-04T20:56:47.000Z,1012.209
2017-07-04T21:06:47.000Z,1012.249
2017-07-04T21:16:47.000Z,1012.298
2017-07-04T21:26:47.000Z,1012.367
2017-07-04T21:36:47.000Z,1012.36
2017-07-04T21:46:47.000Z,1012.283
2017-07-04T21:56:47.000Z,1012.2
2017-07-04T22:06:47.000Z,1012.185
2017-07-04T22:16:47.000Z,1012.172
2017-07-04T22:26:47.000Z,1012.098
2017-07-04T22:36:47.000Z,1012.003
2017-07-04T22:46:47.000Z,1012.078
2017-07-04T22:56:47.000Z,1011.991
2017-07-04T23:06:47.000Z,1011.897
2017-07-04T23:16:47.000Z,1011.857
2017-07-04T23:26:47.000Z,1011.761
2017-07-04T23:36:47.000Z,1011.778
2017-07-04T23:46:47.000Z,1011.621
2017-07-04T23:56:47.000Z,1011.533
